createdAt,value
2019-06-27T00:01:44.214Z,1.57
2019-06-27T00:04:13.068Z,1.40
2019-06-27T00:06:42.119Z,1.82
2019-06-27T00:09:11.695Z,1.50
2019-06-27T00:11:40.332Z,1.40
2019-06-27T00:14:09.291Z,1.50
2019-06-27T00:16:38.217Z,1.80
2019-06-27T00:19:07.310Z,1.87
2019-06-27T00:21:36.206Z,1.92
2019-06-27T00:24:04.907Z,2.27
2019-06-27T00:26:33.942Z,1.82
2019-06-27T00:29:03.033Z,1.92
2019-06-27T00:31:31.693Z,1.77
2019-06-27T00:34:00.312Z,1.90
2019-06-27T00:36:29.055Z,1.98
2019-06-27T00:38:57.687Z,2.10
2019-06-27T00:41:26.603Z,2.05
2019-06-27T00:43:55.552Z,2.20
2019-06-27T00:46:24.206Z,1.80
2019-06-27T00:48:53.158Z,2.10
2019-06-27T00:51:22.075Z,2.15
2019-06-27T00:53:50.738Z,2.22
2019-06-27T00:56:19.563Z,2.40
2019-06-27T00:58:48.444Z,2.00
2019-06-27T01:01:17.138Z,2.00
2019-06-27T01:03:45.799Z,1.92
2019-06-27T01:06:14.449Z,1.70
2019-06-27T01:08:43.091Z,2.15
2019-06-27T01:11:12.031Z,2.12
2019-06-27T01:13:40.869Z,2.60
2019-06-27T01:16:09.539Z,2.15
2019-06-27T01:18:38.194Z,1.82
2019-06-27T01:21:06.853Z,2.42
2019-06-27T01:23:35.480Z,2.25
2019-06-27T01:26:05.029Z,2.47
2019-06-27T01:28:33.721Z,1.92
2019-06-27T01:31:02.872Z,2.12
2019-06-27T01:33:31.529Z,2.08
2019-06-27T01:36:00.654Z,1.75
2019-06-27T01:38:29.550Z,1.70
2019-06-27T01:40:58.182Z,1.60
2019-06-27T01:43:26.840Z,2.20
2019-06-27T01:45:57.363Z,1.55
2019-06-27T01:48:26.703Z,1.50
2019-06-27T01:50:55.331Z,1.40
2019-06-27T01:53:23.993Z,1.60
2019-06-27T01:55:52.659Z,1.40
2019-06-27T01:58:21.505Z,1.90
2019-06-27T02:00:50.326Z,1.27
2019-06-27T02:03:19.047Z,1.32
2019-06-27T02:05:47.888Z,1.60
2019-06-27T02:08:16.526Z,1.73
2019-06-27T02:10:45.209Z,1.40
2019-06-27T02:13:13.858Z,1.63
2019-06-27T02:15:43.239Z,1.57
2019-06-27T02:18:11.943Z,1.53
2019-06-27T02:20:40.595Z,1.67
2019-06-27T02:23:09.598Z,1.30
2019-06-27T02:25:38.404Z,1.40
2019-06-27T02:28:07.292Z,1.73
2019-06-27T02:30:39.935Z,1.77
2019-06-27T02:33:08.842Z,1.30
2019-06-27T02:35:37.873Z,1.63
2019-06-27T02:38:07.299Z,2.00
2019-06-27T02:40:36.302Z,1.43
2019-06-27T02:43:05.476Z,1.70
2019-06-27T02:45:34.287Z,1.47
2019-06-27T02:48:02.931Z,1.43
2019-06-27T02:50:31.612Z,1.47
2019-06-27T02:53:00.526Z,1.70
2019-06-27T02:55:29.311Z,2.10
2019-06-27T02:57:58.365Z,1.62
2019-06-27T03:00:27.180Z,2.57
2019-06-27T03:02:55.805Z,1.80
2019-06-27T03:05:24.701Z,1.97
2019-06-27T03:07:53.404Z,1.83
2019-06-27T03:10:22.075Z,1.43
2019-06-27T03:12:50.724Z,1.63
2019-06-27T03:15:19.495Z,1.70
2019-06-27T03:17:48.257Z,1.90
2019-06-27T03:20:16.979Z,2.43
2019-06-27T03:22:45.621Z,1.97
2019-06-27T03:25:14.633Z,1.37
2019-06-27T03:27:43.737Z,1.50
2019-06-27T03:30:12.728Z,1.60
2019-06-27T03:32:41.408Z,1.63
2019-06-27T03:35:10.189Z,1.40
2019-06-27T03:37:38.899Z,1.57
2019-06-27T03:40:08.728Z,1.70
2019-06-27T03:42:37.609Z,1.63
2019-06-27T03:45:06.424Z,1.90
2019-06-27T03:47:35.138Z,2.23
2019-06-27T03:50:04.099Z,1.70
2019-06-27T03:52:33.002Z,2.20
2019-06-27T03:55:01.697Z,1.83
2019-06-27T03:57:30.685Z,2.00
2019-06-27T03:59:59.669Z,1.83
2019-06-27T04:02:28.584Z,1.80
2019-06-27T04:04:57.664Z,2.00
2019-06-27T04:07:26.286Z,1.60
2019-06-27T04:09:54.945Z,1.90
2019-06-27T04:12:23.891Z,1.97
2019-06-27T04:14:52.883Z,1.70
2019-06-27T04:17:21.524Z,2.00
2019-06-27T04:19:50.352Z,1.90
2019-06-27T04:22:18.991Z,1.73
2019-06-27T04:24:47.635Z,2.27
2019-06-27T04:27:16.616Z,1.57
2019-06-27T04:29:45.545Z,1.57
2019-06-27T04:32:14.214Z,1.37
2019-06-27T04:34:42.908Z,2.27
2019-06-27T04:37:11.552Z,1.67
2019-06-27T04:39:40.492Z,1.80
2019-06-27T04:42:09.154Z,1.23
2019-06-27T04:44:38.143Z,1.37
2019-06-27T04:47:06.787Z,1.20
2019-06-27T04:49:35.534Z,1.70
2019-06-27T04:52:04.155Z,1.37
2019-06-27T04:54:33.127Z,2.10
2019-06-27T04:57:01.775Z,1.40
2019-06-27T04:59:30.539Z,1.50
2019-06-27T05:01:59.260Z,1.57
2019-06-27T05:04:28.674Z,1.40
2019-06-27T05:06:57.761Z,1.65
2019-06-27T05:09:26.707Z,1.30
2019-06-27T05:11:55.412Z,1.10
2019-06-27T05:14:24.090Z,1.30
2019-06-27T05:16:52.797Z,1.12
2019-06-27T05:19:21.506Z,0.90
2019-06-27T05:21:50.210Z,1.07
2019-06-27T05:24:18.872Z,1.45
2019-06-27T05:26:48.878Z,1.32
2019-06-27T05:29:17.806Z,1.17
2019-06-27T05:31:46.996Z,1.55
2019-06-27T05:34:15.888Z,0.75
2019-06-27T05:36:44.604Z,1.00
2019-06-27T05:39:13.350Z,1.15
2019-06-27T05:41:42.286Z,1.12
2019-06-27T05:44:11.365Z,0.90
2019-06-27T05:46:40.701Z,0.70
2019-06-27T05:49:09.370Z,0.90
2019-06-27T05:51:38.541Z,0.80
2019-06-27T05:54:07.386Z,0.80
2019-06-27T05:56:36.118Z,1.05
2019-06-27T05:59:04.915Z,0.85
2019-06-27T06:01:33.695Z,0.95
2019-06-27T06:04:02.645Z,1.20
2019-06-27T06:06:31.567Z,1.07
2019-06-27T06:09:00.354Z,0.90
2019-06-27T06:11:29.223Z,0.90
2019-06-27T06:13:58.500Z,1.00
2019-06-27T06:16:27.519Z,1.02
2019-06-27T06:18:56.234Z,1.30
2019-06-27T06:21:25.084Z,1.05
2019-06-27T06:23:53.943Z,0.93
2019-06-27T06:26:22.832Z,1.25
2019-06-27T06:28:52.390Z,1.10
2019-06-27T06:31:21.609Z,0.80
2019-06-27T06:33:50.394Z,1.37
2019-06-27T06:36:20.015Z,1.12
2019-06-27T06:38:49.128Z,1.00
2019-06-27T06:41:18.203Z,0.72
2019-06-27T06:43:47.323Z,1.40
2019-06-27T06:46:17.035Z,0.75
2019-06-27T06:48:45.899Z,1.12
2019-06-27T06:51:15.455Z,1.00
2019-06-27T06:53:44.520Z,1.12
2019-06-27T06:56:16.098Z,0.75
2019-06-27T06:58:44.774Z,1.00
2019-06-27T07:01:13.862Z,1.27
2019-06-27T07:03:42.639Z,0.93
2019-06-27T07:06:11.865Z,1.07
2019-06-27T07:08:40.667Z,1.00
2019-06-27T07:11:09.442Z,1.30
2019-06-27T07:13:38.101Z,1.17
2019-06-27T07:16:06.742Z,1.02
2019-06-27T07:18:35.507Z,0.95
2019-06-27T07:21:04.343Z,1.02
2019-06-27T07:23:33.456Z,1.17
2019-06-27T07:26:02.200Z,0.98
2019-06-27T07:28:31.001Z,0.82
2019-06-27T07:30:59.933Z,0.90
2019-06-27T07:33:29.004Z,0.93
2019-06-27T07:35:58.040Z,1.20
2019-06-27T07:38:27.131Z,1.20
2019-06-27T07:40:55.888Z,1.20
2019-06-27T07:43:24.629Z,1.05
2019-06-27T07:45:53.345Z,1.02
2019-06-27T07:48:22.317Z,1.15
2019-06-27T07:50:51.603Z,0.90
2019-06-27T07:53:20.623Z,1.30
2019-06-27T07:55:49.363Z,1.10
2019-06-27T07:58:18.184Z,0.98
2019-06-27T08:00:46.856Z,1.37
2019-06-27T08:03:16.086Z,1.15
2019-06-27T08:05:44.904Z,1.15
2019-06-27T08:08:13.790Z,1.00
2019-06-27T08:10:42.806Z,0.75
2019-06-27T08:13:11.599Z,1.05
2019-06-27T08:15:40.265Z,1.32
2019-06-27T08:18:08.976Z,1.40
2019-06-27T08:20:37.611Z,1.20
2019-06-27T08:23:06.323Z,1.00
2019-06-27T08:25:35.042Z,0.80
2019-06-27T08:28:03.899Z,0.90
2019-06-27T08:30:32.823Z,1.25
2019-06-27T08:33:01.604Z,1.70
2019-06-27T08:35:33.412Z,0.88
2019-06-27T08:38:01.242Z,0.98
2019-06-27T08:40:30.049Z,0.88
2019-06-27T08:42:58.812Z,1.05
2019-06-27T08:45:27.937Z,0.78
2019-06-27T08:47:56.725Z,1.22
2019-06-27T08:50:25.529Z,0.75
2019-06-27T08:52:54.383Z,1.12
2019-06-27T08:55:23.279Z,1.20
2019-06-27T08:57:52.312Z,1.00
2019-06-27T09:00:21.275Z,1.62
2019-06-27T09:02:50.082Z,1.00
2019-06-27T09:05:18.844Z,0.78
2019-06-27T09:07:47.839Z,1.00
2019-06-27T09:10:17.942Z,1.07
2019-06-27T09:12:46.769Z,1.27
2019-06-27T09:15:16.210Z,1.07
2019-06-27T09:17:45.252Z,1.22
2019-06-27T09:20:14.262Z,1.05
2019-06-27T09:22:43.019Z,1.30
2019-06-27T09:25:11.926Z,1.20
2019-06-27T09:27:40.891Z,1.30
2019-06-27T09:30:10.265Z,0.90
2019-06-27T09:32:39.700Z,1.17
2019-06-27T09:35:09.931Z,1.30
2019-06-27T09:37:38.607Z,0.82
2019-06-27T09:40:08.108Z,1.12
2019-06-27T09:42:36.856Z,0.75
2019-06-27T09:45:06.640Z,1.25
2019-06-27T09:47:35.694Z,0.98
2019-06-27T09:50:04.734Z,1.42
2019-06-27T09:52:33.726Z,1.10
2019-06-27T09:55:02.466Z,1.07
2019-06-27T09:57:31.609Z,1.40
2019-06-27T10:00:00.311Z,1.00
2019-06-27T10:02:40.931Z,1.07
2019-06-27T10:05:00.300Z,0.80
2019-06-27T10:07:29.323Z,0.80
2019-06-27T10:09:58.045Z,1.22
2019-06-27T10:12:41.183Z,1.20
2019-06-27T10:14:57.182Z,1.05
2019-06-27T10:17:25.879Z,1.15
2019-06-27T10:19:54.967Z,1.15
2019-06-27T10:22:24.530Z,1.07
2019-06-27T10:24:53.338Z,1.12
2019-06-27T10:27:22.361Z,0.80
2019-06-27T10:29:51.128Z,0.93
2019-06-27T10:32:19.955Z,0.80
2019-06-27T10:34:49.035Z,1.22
2019-06-27T10:37:18.437Z,1.47
2019-06-27T10:39:47.155Z,0.90
2019-06-27T10:42:15.956Z,1.00
2019-06-27T10:44:45.110Z,0.90
2019-06-27T10:47:13.840Z,1.37
2019-06-27T10:49:42.667Z,1.00
2019-06-27T10:52:11.637Z,1.10
2019-06-27T10:54:40.407Z,1.00
2019-06-27T10:57:09.443Z,0.70
2019-06-27T10:59:39.062Z,1.17
2019-06-27T11:02:07.824Z,0.78
2019-06-27T11:04:36.837Z,1.40
2019-06-27T11:07:05.533Z,1.10
2019-06-27T11:09:34.218Z,1.05
2019-06-27T11:12:03.203Z,1.05
2019-06-27T11:14:32.078Z,1.52
2019-06-27T11:17:00.799Z,1.30
2019-06-27T11:19:29.914Z,0.98
2019-06-27T11:21:58.657Z,0.75
2019-06-27T11:24:27.661Z,1.05
2019-06-27T11:26:56.338Z,1.25
2019-06-27T11:29:25.011Z,0.70
2019-06-27T11:31:53.768Z,0.75
2019-06-27T11:34:22.515Z,1.37
2019-06-27T11:36:51.582Z,1.22
2019-06-27T11:39:23.242Z,0.90
2019-06-27T11:41:51.099Z,1.20
2019-06-27T11:44:19.832Z,1.20
2019-06-27T11:46:48.856Z,1.20
2019-06-27T11:49:17.554Z,0.95
2019-06-27T11:51:46.460Z,1.17
2019-06-27T11:54:15.136Z,0.95
2019-06-27T11:56:44.329Z,1.00
2019-06-27T11:59:13.044Z,1.27
2019-06-27T12:01:42.184Z,1.00
2019-06-27T12:04:10.917Z,0.80
2019-06-27T12:06:40.320Z,1.00
2019-06-27T12:09:09.050Z,1.47
2019-06-27T12:11:38.089Z,0.98
2019-06-27T12:14:06.810Z,0.82
2019-06-27T12:16:35.605Z,1.47
2019-06-27T12:19:04.412Z,1.02
2019-06-27T12:21:33.263Z,1.00
2019-06-27T12:24:02.427Z,0.80
2019-06-27T12:26:31.186Z,1.10
2019-06-27T12:28:59.849Z,1.12
2019-06-27T12:31:28.556Z,0.88
2019-06-27T12:34:06.689Z,1.10
2019-06-27T12:36:27.916Z,1.02
2019-06-27T12:38:56.618Z,0.75
2019-06-27T12:41:25.280Z,0.85
2019-06-27T12:43:54.090Z,1.10
2019-06-27T12:46:22.804Z,1.50
2019-06-27T12:48:51.502Z,0.95
2019-06-27T12:51:20.447Z,1.17
2019-06-27T12:53:49.345Z,1.17
2019-06-27T12:56:18.408Z,0.80
2019-06-27T12:58:47.535Z,0.75
2019-06-27T13:01:16.655Z,0.75
2019-06-27T13:03:45.329Z,0.95
2019-06-27T13:06:14.621Z,1.07
2019-06-27T13:08:43.922Z,0.98
2019-06-27T13:11:12.630Z,0.90
2019-06-27T13:13:41.615Z,0.90
2019-06-27T13:16:10.450Z,0.70
2019-06-27T13:18:39.163Z,1.15
2019-06-27T13:21:07.983Z,0.85
2019-06-27T13:23:37.094Z,0.85
2019-06-27T13:26:05.857Z,1.12
2019-06-27T13:28:34.680Z,0.80
2019-06-27T13:31:03.521Z,0.93
2019-06-27T13:33:32.303Z,1.20
2019-06-27T13:36:01.293Z,0.80
2019-06-27T13:38:30.355Z,1.02
2019-06-27T13:41:02.154Z,0.70
2019-06-27T13:43:29.732Z,1.52
2019-06-27T13:45:58.949Z,0.80
2019-06-27T13:48:27.844Z,0.95
2019-06-27T13:50:57.929Z,1.10
2019-06-27T13:53:27.208Z,0.85
2019-06-27T13:55:59.996Z,0.72
2019-06-27T13:58:29.958Z,0.88
2019-06-27T14:00:59.008Z,0.78
2019-06-27T14:03:28.056Z,0.90
2019-06-27T14:05:56.854Z,1.00
2019-06-27T14:08:26.366Z,0.90
2019-06-27T14:10:56.490Z,1.02
2019-06-27T14:13:25.750Z,1.05
2019-06-27T14:15:54.644Z,1.00
2019-06-27T14:18:23.459Z,1.10
2019-06-27T14:20:52.294Z,1.30
2019-06-27T14:23:21.123Z,0.72
2019-06-27T14:25:49.910Z,1.00
2019-06-27T14:28:18.662Z,1.15
2019-06-27T14:30:47.618Z,1.07
2019-06-27T14:33:16.587Z,0.80
2019-06-27T14:35:45.588Z,1.05
2019-06-27T14:38:14.423Z,1.10
2019-06-27T14:40:44.320Z,1.02
2019-06-27T14:43:13.612Z,0.70
2019-06-27T14:45:42.735Z,0.90
2019-06-27T14:48:11.479Z,0.78
2019-06-27T14:50:40.480Z,1.00
2019-06-27T14:53:09.261Z,0.85
2019-06-27T14:55:37.944Z,0.88
2019-06-27T14:58:06.724Z,0.82
2019-06-27T15:00:35.491Z,1.20
2019-06-27T15:03:04.258Z,1.02
2019-06-27T15:05:33.769Z,1.25
2019-06-27T15:08:02.764Z,0.82
2019-06-27T15:10:31.522Z,0.80
2019-06-27T15:13:00.489Z,0.70
2019-06-27T15:15:29.462Z,1.00
2019-06-27T15:17:58.212Z,1.30
2019-06-27T15:20:27.007Z,0.90
2019-06-27T15:22:55.856Z,0.90
2019-06-27T15:25:28.127Z,0.90
2019-06-27T15:27:55.683Z,0.90
2019-06-27T15:30:24.373Z,0.90
2019-06-27T15:32:53.137Z,0.95
2019-06-27T15:35:21.899Z,0.90
2019-06-27T15:37:50.576Z,1.07
2019-06-27T15:40:19.422Z,1.32
2019-06-27T15:42:48.383Z,1.10
2019-06-27T15:45:17.227Z,0.93
2019-06-27T15:47:46.423Z,0.65
2019-06-27T15:50:15.324Z,1.25
2019-06-27T15:52:44.166Z,0.75
2019-06-27T15:55:13.493Z,0.98
2019-06-27T15:57:42.231Z,0.80
2019-06-27T16:00:12.212Z,0.85
2019-06-27T16:02:41.184Z,0.70
2019-06-27T16:05:10.092Z,1.32
2019-06-27T16:07:38.859Z,0.90
2019-06-27T16:10:08.254Z,0.70
2019-06-27T16:12:37.046Z,0.98
2019-06-27T16:15:06.838Z,0.93
2019-06-27T16:17:35.774Z,0.90
2019-06-27T16:20:05.275Z,0.65
2019-06-27T16:22:33.959Z,1.00
2019-06-27T16:25:02.886Z,0.70
2019-06-27T16:27:31.561Z,0.70
2019-06-27T16:30:00.297Z,0.78
2019-06-27T16:32:29.063Z,0.70
2019-06-27T16:34:57.883Z,0.90
2019-06-27T16:37:26.788Z,0.60
2019-06-27T16:39:55.559Z,0.80
2019-06-27T16:42:24.240Z,0.95
2019-06-27T16:44:52.942Z,1.15
2019-06-27T16:47:21.787Z,1.00
2019-06-27T16:49:50.954Z,0.82
2019-06-27T16:52:19.749Z,0.72
2019-06-27T16:54:48.479Z,0.82
2019-06-27T16:57:17.247Z,0.68
2019-06-27T16:59:45.979Z,1.07
2019-06-27T17:02:14.667Z,0.90
2019-06-27T17:04:43.469Z,0.65
2019-06-27T17:07:12.869Z,0.57
2019-06-27T17:09:41.583Z,0.53
2019-06-27T17:12:10.251Z,0.70
2019-06-27T17:14:38.936Z,0.53
2019-06-27T17:17:07.623Z,0.75
2019-06-27T17:19:37.231Z,0.53
2019-06-27T17:22:06.187Z,0.50
2019-06-27T17:24:35.163Z,0.82
2019-06-27T17:27:03.868Z,0.72
2019-06-27T17:29:32.701Z,0.60
2019-06-27T17:32:01.549Z,0.40
2019-06-27T17:34:30.266Z,0.70
2019-06-27T17:36:59.039Z,0.72
2019-06-27T17:39:27.688Z,0.85
2019-06-27T17:41:56.508Z,0.70
2019-06-27T17:44:25.304Z,0.75
2019-06-27T17:46:54.122Z,1.02
2019-06-27T17:49:22.834Z,0.95
2019-06-27T17:51:51.603Z,0.80
2019-06-27T17:54:20.293Z,0.90
2019-06-27T17:56:48.998Z,0.42
2019-06-27T17:59:18.140Z,0.65
2019-06-27T18:01:46.871Z,0.82
2019-06-27T18:04:15.738Z,0.80
2019-06-27T18:06:44.828Z,0.90
2019-06-27T18:09:13.546Z,0.50
2019-06-27T18:11:42.560Z,0.80
2019-06-27T18:14:11.325Z,0.70
2019-06-27T18:16:40.750Z,0.78
2019-06-27T18:19:09.650Z,0.60
2019-06-27T18:21:38.502Z,0.80
2019-06-27T18:24:07.459Z,0.65
2019-06-27T18:26:36.434Z,0.78
2019-06-27T18:29:05.443Z,0.60
2019-06-27T18:31:34.335Z,0.47
2019-06-27T18:34:03.306Z,0.50
2019-06-27T18:36:32.554Z,0.72
2019-06-27T18:39:01.377Z,0.60
2019-06-27T18:41:30.198Z,0.72
2019-06-27T18:43:59.035Z,1.40
2019-06-27T18:46:27.802Z,1.00
2019-06-27T18:49:03.082Z,0.70
2019-06-27T18:51:32.075Z,0.60
2019-06-27T18:54:01.159Z,0.50
2019-06-27T18:56:30.303Z,0.57
2019-06-27T18:58:59.699Z,0.40
2019-06-27T19:01:28.810Z,0.57
2019-06-27T19:03:57.596Z,0.60
2019-06-27T19:06:26.475Z,0.40
2019-06-27T19:08:55.445Z,0.80
2019-06-27T19:11:24.680Z,0.60
2019-06-27T19:13:53.509Z,0.50
2019-06-27T19:16:22.288Z,0.60
2019-06-27T19:18:55.859Z,0.60
2019-06-27T19:21:33.950Z,0.80
2019-06-27T19:24:24.868Z,0.85
2019-06-27T19:26:54.931Z,0.62
2019-06-27T19:29:25.893Z,0.50
2019-06-27T19:31:54.260Z,0.98
2019-06-27T19:34:23.256Z,0.60
2019-06-27T19:36:51.995Z,0.55
2019-06-27T19:39:21.048Z,0.75
2019-06-27T19:41:50.248Z,0.70
2019-06-27T19:44:19.242Z,0.70
2019-06-27T19:46:48.080Z,0.65
2019-06-27T19:49:16.834Z,0.80
2019-06-27T19:51:46.273Z,0.90
2019-06-27T19:54:15.450Z,0.72
2019-06-27T19:56:45.127Z,0.70
2019-06-27T19:59:14.140Z,0.80
2019-06-27T20:01:44.378Z,0.82
2019-06-27T20:04:13.169Z,0.90
2019-06-27T20:06:42.307Z,0.45
2019-06-27T20:09:11.240Z,0.70
2019-06-27T20:11:40.315Z,1.02
2019-06-27T20:14:09.039Z,0.93
2019-06-27T20:16:37.837Z,0.78
2019-06-27T20:19:06.609Z,0.70
2019-06-27T20:21:35.432Z,0.80
2019-06-27T20:24:04.137Z,0.70
2019-06-27T20:26:33.251Z,0.80
2019-06-27T20:29:02.359Z,0.70
2019-06-27T20:31:31.235Z,0.75
2019-06-27T20:34:00.514Z,0.95
2019-06-27T20:36:29.276Z,0.70
2019-06-27T20:38:58.430Z,0.60
2019-06-27T20:41:29.436Z,0.80
2019-06-27T20:43:58.466Z,0.90
2019-06-27T20:46:27.589Z,1.00
2019-06-27T20:48:56.946Z,0.80
2019-06-27T20:51:25.887Z,0.50
2019-06-27T20:53:55.190Z,0.90
2019-06-27T20:56:23.847Z,0.80
2019-06-27T20:58:52.831Z,0.50
2019-06-27T21:01:21.533Z,0.80
2019-06-27T21:03:50.415Z,0.88
2019-06-27T21:06:19.401Z,0.57
2019-06-27T21:08:51.549Z,0.83
2019-06-27T21:11:18.708Z,0.90
2019-06-27T21:13:48.732Z,0.70
2019-06-27T21:16:18.581Z,0.77
2019-06-27T21:18:47.404Z,0.50
2019-06-27T21:21:18.302Z,0.60
2019-06-27T21:23:47.663Z,1.00
2019-06-27T21:26:16.518Z,0.82
2019-06-27T21:28:45.682Z,0.82
2019-06-27T21:31:14.656Z,0.75
2019-06-27T21:33:43.916Z,0.70
2019-06-27T21:36:12.998Z,0.80
2019-06-27T21:38:41.694Z,0.95
2019-06-27T21:41:10.425Z,1.02
2019-06-27T21:43:39.243Z,1.05
2019-06-27T21:46:07.999Z,0.73
2019-06-27T21:48:36.767Z,0.60
2019-06-27T21:51:06.015Z,0.98
2019-06-27T21:55:18.066Z,0.77
2019-06-27T21:57:47.053Z,1.00
2019-06-27T22:00:16.068Z,0.70
2019-06-27T22:02:45.345Z,0.80
2019-06-27T22:05:14.666Z,0.67
2019-06-27T22:07:43.579Z,0.83
2019-06-27T22:10:12.540Z,0.80
2019-06-27T22:12:41.277Z,0.70
2019-06-27T22:15:10.417Z,1.10
2019-06-27T22:17:39.412Z,0.93
2019-06-27T22:20:15.065Z,0.77
2019-06-27T22:22:39.254Z,0.88
2019-06-27T22:25:08.065Z,1.07
2019-06-27T22:27:36.886Z,0.68
2019-06-27T22:30:05.992Z,0.90
2019-06-27T22:32:34.775Z,0.90
2019-06-27T22:35:03.951Z,0.70
2019-06-27T22:37:31.979Z,0.60
2019-06-27T22:40:19.121Z,0.73
2019-06-27T22:43:05.877Z,0.80
2019-06-27T22:45:52.523Z,0.90
2019-06-27T22:48:21.461Z,1.00
2019-06-27T22:51:10.195Z,0.95
2019-06-27T22:53:58.707Z,1.00
2019-06-27T22:56:27.410Z,0.80
2019-06-27T22:58:56.874Z,0.87
2019-06-27T23:01:25.883Z,1.13
2019-06-27T23:03:55.162Z,0.90
2019-06-27T23:06:26.646Z,0.80
2019-06-27T23:08:55.999Z,0.80
2019-06-27T23:11:24.686Z,0.90
2019-06-27T23:13:53.425Z,0.90
2019-06-27T23:16:22.446Z,1.00
2019-06-27T23:18:51.480Z,1.37
2019-06-27T23:21:20.506Z,0.87
2019-06-27T23:23:49.220Z,0.97
2019-06-27T23:26:18.228Z,0.75
2019-06-27T23:28:46.910Z,1.00
2019-06-27T23:31:16.015Z,0.93
2019-06-27T23:33:44.998Z,1.10
2019-06-27T23:36:13.695Z,0.80
2019-06-27T23:38:42.407Z,1.07
2019-06-27T23:41:11.092Z,1.00
2019-06-27T23:43:39.779Z,1.10
2019-06-27T23:46:10.258Z,0.90
2019-06-27T23:48:39.251Z,1.10
2019-06-27T23:51:08.537Z,0.90
2019-06-27T23:53:37.245Z,1.07
2019-06-27T23:59:15.318Z,1.00
